Flight Track Log - Related Links

Times and Time Zones

All times are in EDT time to prevent confusion due to time zone crossing. See the N317TT flight status page for this flight to view local times or setup timezone preferences in your user account.

Time Position Orientation Groundspeed Altitude Reporting Facility
EDT Latitude Longitude Course Direction KTS MPH feet Rate Location/Type
Mon 02:24:43 PM 26.6881 -79.9956 61° Northeast 240 276 4,400  Level Miami Center
Mon 02:25:43 PM 26.7350 -79.9433 45° Northeast 228 262 7,800 3,350 Climbing Miami Center
Mon 02:26:43 PM 26.7947 -79.8844 41° Northeast 259 298 11,100 2,950 Climbing Miami Center
Mon 02:27:43 PM 26.8567 -79.8117 46° Northeast 303 349 13,700 2,150 Climbing Miami Center
Mon 02:28:43 PM 26.9169 -79.7222 53° Northeast 335 386 15,400 1,100 Climbing Miami Center
Mon 02:29:00 PM 26.9739 -79.6085 55° Northeast  Level FlightAware Approximate
Mon 02:29:43 PM 26.9897 -79.6422 44° Northeast 386 444 15,900  Level Miami Center
Mon 02:30:00 PM 27.0371 -79.5092 61° Northeast  Level FlightAware Approximate
Mon 02:30:43 PM 27.0869 -79.5700 33° Northeast 409 471 16,200  Level Miami Center
Mon 02:31:43 PM 27.1928 -79.4931 33° Northeast 419 482 18,700 2,350 Climbing Miami Center
Mon 02:32:43 PM 27.2861 -79.4228 34° Northeast 413 475 20,900 1,550 Climbing Miami Center
Mon 02:33:43 PM 27.3622 -79.3661 33° Northeast 408 470 21,800 950 Climbing Miami Center
Mon 02:34:43 PM 27.4700 -79.2842 34° Northeast 408 470 22,800 600 Climbing Miami Center
Mon 02:35:43 PM 27.5717 -79.2067 34° Northeast 420 483 23,000 100 Climbing Miami Center
Mon 02:36:43 PM 27.6878 -79.1175 34° Northeast 449 517 23,000 350 Level Miami Center
Mon 02:37:43 PM 27.7956 -79.0397 33° Northeast 458 527 23,700 1,000 Climbing Miami Center
Mon 02:38:43 PM 27.9111 -78.9972 18° North 437 503 25,000 950 Climbing Miami Center
Mon 02:39:43 PM 28.0367 -78.9714 10° North 446 513 25,600 650 Climbing Miami Center
Mon 02:40:43 PM 28.1603 -78.9478 10° North 446 513 26,300 700 Climbing Miami Center
Mon 02:41:43 PM 28.2919 -78.9244 North 456 525 27,000 750 Climbing Miami Center
Mon 02:42:43 PM 28.4217 -78.9008 North 462 532 27,800 750 Climbing Miami Center
Mon 02:43:43 PM 28.5494 -78.8794 North 467 537 28,500 850 Climbing Miami Center
Mon 02:44:43 PM 28.6728 -78.8533 11° North 467 537 29,500 900 Climbing Miami Center
Mon 02:45:43 PM 28.8047 -78.8319 North 467 537 30,300 1,050 Climbing Miami Center
Mon 02:46:43 PM 28.9303 -78.8106 North 460 529 31,600 1,350 Climbing Miami Center
Mon 02:47:43 PM 29.0556 -78.7867 North 455 524 33,000 1,400 Climbing Miami Center
Mon 02:48:43 PM 29.1728 -78.7650 North 448 516 34,400 1,350 Climbing Miami Center
Mon 02:49:43 PM 29.2878 -78.7383 11° North 443 510 35,700 1,150 Climbing Miami Center
Mon 02:50:43 PM 29.4008 -78.7117 12° North 431 496 36,700 900 Climbing Miami Center
Mon 02:51:43 PM 29.5261 -78.6972 North 431 496 37,500 700 Climbing Miami Center
Mon 02:52:43 PM 29.6494 -78.6753 North 431 496 38,100 538 Climbing Miami Center
Mon 02:54:19 PM 29.8303 -78.6383 10° North 473 544 38,900 497 Climbing Jacksonville Center
Mon 02:55:20 PM 29.9567 -78.6089 11° North 438 504 39,400 500 Climbing Jacksonville Center
Mon 02:56:19 PM 30.0769 -78.5844 10° North 433 498 39,900 555 Climbing Jacksonville Center
Mon 02:57:19 PM 30.2014 -78.5644 North 433 498 40,500 550 Climbing Jacksonville Center
Mon 02:58:19 PM 30.3217 -78.5397 10° North 438 504 41,000 250 Climbing Jacksonville Center
Mon 02:59:19 PM 30.4461 -78.5172 North 442 509 41,000  Level Jacksonville Center
Mon 03:00:19 PM 30.5625 -78.4997 North 443 510 41,000  Level Jacksonville Center
Mon 03:01:20 PM 30.6828 -78.4797 North 432 497 41,000  Level Jacksonville Center
Mon 03:02:19 PM 30.8072 -78.4594 North 447 514 41,000  Level Jacksonville Center
Mon 03:03:19 PM 30.9317 -78.4367 North 449 517 41,000  Level Jacksonville Center
Mon 03:04:19 PM 31.0439 -78.4217 North 444 511 41,000  Level Jacksonville Center
Mon 03:05:19 PM 31.1642 -78.4014 North 444 511 41,000  Level Jacksonville Center
Mon 03:06:19 PM 31.2889 -78.3808 North 444 511 41,000  Level Jacksonville Center
Mon 03:07:20 PM 31.4111 -78.3603 North 444 511 41,000  Level Jacksonville Center
Mon 03:08:19 PM 31.5358 -78.3397 North 444 511 41,000  Level Jacksonville Center
Mon 03:09:19 PM 31.6581 -78.3189 North 444 511 41,000  Level Jacksonville Center
Mon 03:10:19 PM 31.7783 -78.2983 North 444 511 41,000  Level Jacksonville Center
Mon 03:11:19 PM 31.9008 -78.2775 North 444 511 41,000  Level Jacksonville Center
Mon 03:12:19 PM 32.0214 -78.2594 North 444 511 41,000  Level Jacksonville Center
Mon 03:13:20 PM 32.1456 -78.2333 10° North 444 511 41,000  Level Jacksonville Center
Mon 03:14:19 PM 32.2678 -78.2100 North 444 511 41,000  Level Jacksonville Center
Mon 03:15:19 PM 32.3906 -78.1964 North 444 511 41,000  Level Jacksonville Center
Mon 03:16:20 PM 32.5108 -78.1753 North 438 504 41,000  Level Jacksonville Center
Mon 03:17:19 PM 32.6353 -78.1542 North 438 504 41,000  Level Jacksonville Center
Mon 03:18:19 PM 32.7578 -78.1378 North 443 510 41,000  Level Jacksonville Center
Mon 03:20:27 PM 33.0275 -78.0928 North 443 510 41,000  Level Washington Center
Mon 03:21:27 PM 33.1489 -78.0739 North 443 510 41,000  Level Washington Center
Mon 03:22:27 PM 33.2725 -78.0553 North 451 519 41,000  Level Washington Center
Mon 03:23:27 PM 33.3958 -78.0342 North 446 513 41,000  Level Washington Center
Mon 03:24:27 PM 33.5172 -78.0150 North 446 513 41,000  Level Washington Center
Mon 03:25:27 PM 33.6386 -77.9936 North 446 513 41,000  Level Washington Center
Mon 03:26:27 PM 33.7497 -77.9769 North 451 519 41,000  Level Washington Center
Mon 03:27:27 PM 33.8583 -77.9600 North 445 512 41,000  Level Washington Center
Mon 03:28:27 PM 33.9967 -77.9339 North 450 518 41,000  Level Washington Center
Mon 03:29:27 PM 34.1181 -77.9147 North 444 511 41,000  Level Washington Center
Mon 03:30:27 PM 34.2372 -77.8956 North 444 511 41,000  Level Washington Center
Mon 03:31:27 PM 34.3753 -77.8742 North 449 517 41,000  Level Washington Center
Mon 03:32:27 PM 34.4944 -77.8725 North 439 505 41,000  Level Washington Center
Mon 03:33:27 PM 34.6111 -77.8758 359° North 428 493 41,000  Level Washington Center
Mon 03:34:27 PM 34.7303 -77.8714 North 418 481 41,000  Level Washington Center
Mon 03:35:27 PM 34.8469 -77.8672 North 418 481 41,000  Level Washington Center
Mon 03:36:27 PM 34.9661 -77.8656 North 423 487 41,000  Level Washington Center
Mon 03:37:27 PM 35.0869 -77.8664 360° North 423 487 41,000  Level Washington Center
Mon 03:38:27 PM 35.2081 -77.8647 North 423 487 41,000  Level Washington Center
Mon 03:39:27 PM 35.3314 -77.8606 North 423 487 41,000  Level Washington Center
Mon 03:40:27 PM 35.4544 -77.8589 North 428 493 41,000  Level Washington Center
Mon 03:41:27 PM 35.5781 -77.8342 North 434 499 41,000  Level Washington Center
Mon 03:42:27 PM 35.6997 -77.7892 17° North 447 514 41,000  Level Washington Center
Mon 03:43:27 PM 35.8236 -77.7489 15° North 454 522 41,000  Level Washington Center
Mon 03:44:27 PM 35.9475 -77.7089 15° North 454 522 41,000  Level Washington Center
Mon 03:45:27 PM 36.0733 -77.6683 15° North 459 528 41,000  Level Washington Center
Mon 03:46:27 PM 36.1953 -77.6253 16° North 454 522 41,000  Level Washington Center
Mon 03:47:27 PM 36.3167 -77.5872 14° North 448 516 41,000  Level Washington Center
Mon 03:48:27 PM 36.4344 -77.5436 17° North 448 516 41,000  Level Washington Center
Mon 03:49:27 PM 36.5539 -77.5028 15° North 441 507 41,000  Level Washington Center
Mon 03:50:27 PM 36.6756 -77.4617 15° North 436 502 41,000  Level Washington Center
Mon 03:51:29 PM 36.7950 -77.4231 15° North 436 502 41,000  Level Washington Center
Mon 03:52:27 PM 36.9042 -77.3814 17° North 441 507 41,000  Level Washington Center
Mon 03:53:27 PM 37.0236 -77.3400 15° North 441 507 41,000  Level Washington Center
Mon 03:54:27 PM 37.1453 -77.3011 14° North 441 507 41,000  Level Washington Center
Mon 03:55:27 PM 37.2647 -77.2619 15° North 436 502 41,000  Level Washington Center
Mon 03:56:27 PM 37.3989 -77.2153 15° North 436 502 41,000  Level Washington Center
Mon 03:57:27 PM 37.5247 -77.1708 16° North 446 513 41,000  Level Washington Center
Mon 03:58:27 PM 37.6442 -77.1261 17° North 446 513 41,000  Level Washington Center
Mon 03:59:27 PM 37.7656 -77.0814 16° North 446 513 41,000  Level Washington Center
Mon 04:00:27 PM 37.8892 -77.0389 15° North 446 513 41,000  Level Washington Center
Mon 04:01:27 PM 38.0106 -76.9964 15° North 446 513 41,000  Level Washington Center
Mon 04:02:27 PM 38.1300 -76.9539 16° North 446 513 41,000 -550 Level Washington Center
Mon 04:03:27 PM 38.2472 -76.9111 16° North 446 513 39,900 -1,200 Descending Washington Center
Mon 04:04:27 PM 38.3686 -76.8681 16° North 441 507 38,600 -1,400 Descending Washington Center
Mon 04:05:27 PM 38.4839 -76.8278 15° North 436 502 37,100 -1,500 Descending Washington Center
Mon 04:06:27 PM 38.6011 -76.7844 16° North 436 502 35,600 -1,500 Descending Washington Center
Mon 04:07:27 PM 38.7119 -76.7303 21° North 436 502 34,100 -2,450 Descending Washington Center
Mon 04:08:27 PM 38.8067 -76.6278 40° Northeast 429 494 30,700 -3,100 Descending Washington Center
Mon 04:09:27 PM 38.8847 -76.5411 41° Northeast 440 506 27,900 -3,200 Descending Washington Center
Mon 04:10:27 PM 38.9961 -76.4117 42° Northeast 445 512 24,300 -1,950 Descending Washington Center
Mon 04:11:27 PM 39.0800 -76.3136 42° Northeast 429 494 24,000 -150 Descending Washington Center
Mon 04:12:27 PM 39.1722 -76.2100 41° Northeast 423 487 24,000  Level Washington Center
Mon 04:13:27 PM 39.2686 -76.0956 43° Northeast 436 502 24,000  Level Washington Center
Mon 04:14:27 PM 39.3692 -75.9997 36° Northeast 450 518 24,000 -868 Level Washington Center
Mon 04:14:43 PM 39.3928 -75.9742 40° Northeast 447 514 22,900 -3,000 Descending FAA TRACON SMA TRACON (SMA)
Mon 04:15:03 PM 39.4278 -75.9419 35° Northeast 445 512 22,200 -2,250 Descending FAA TRACON SMA TRACON (SMA)
Mon 04:15:23 PM 39.4642 -75.9103 34° Northeast 446 513 21,400 -2,400 Descending FAA TRACON SMA TRACON (SMA)
Mon 04:15:43 PM 39.4900 -75.8858 36° Northeast 445 512 20,600 -2,700 Descending FAA TRACON SMA TRACON (SMA)
Mon 04:16:03 PM 39.5294 -75.8467 37° Northeast 438 504 19,600 -2,700 Descending FAA TRACON SMA TRACON (SMA)
Mon 04:16:23 PM 39.5594 -75.8172 37° Northeast 421 484 18,800 -2,700 Descending FAA TRACON SMA TRACON (SMA)
Mon 04:16:43 PM 39.5933 -75.7842 37° Northeast 406 467 17,800 -2,250 Descending FAA TRACON SMA TRACON (SMA)
Mon 04:17:03 PM 39.6228 -75.7569 35° Northeast 408 470 17,300 -1,950 Descending FAA TRACON SMA TRACON (SMA)
Mon 04:17:23 PM 39.6514 -75.7314 35° Northeast 406 467 16,500 -2,600 Descending FAA TRACON SMA TRACON (SMA)
Mon 04:18:03 PM 39.7147 -75.6744 35° Northeast 399 459 14,700 -1,900 Descending FAA TRACON SMA TRACON (SMA)
Mon 04:18:23 PM 39.7394 -75.6522 35° Northeast 348 400 14,600 -750 Descending FAA TRACON SMA TRACON (SMA)
Mon 04:18:43 PM 39.7656 -75.6308 32° Northeast 348 400 14,200 -1,317 Descending FAA TRACON SMA TRACON (SMA)
Mon 04:19:04 PM 39.7953 -75.6053 33° Northeast 337 388 13,700 -1,050 Descending FAA TRACON SMA TRACON (SMA)
Mon 04:19:23 PM 39.8183 -75.5844 35° Northeast 326 375 13,500 -462 Descending FAA TRACON SMA TRACON (SMA)
Mon 04:19:43 PM 39.8411 -75.5639 35° Northeast 324 373 13,400 -300 Descending FAA TRACON SMA TRACON (SMA)
Mon 04:20:03 PM 39.8636 -75.5414 38° Northeast 330 380 13,300 -300 Descending FAA TRACON SMA TRACON (SMA)
Mon 04:20:23 PM 39.8925 -75.5122 38° Northeast 336 387 13,200 -300 Descending FAA TRACON SMA TRACON (SMA)
Mon 04:20:43 PM 39.9136 -75.4919 36° Northeast 341 392 13,100 -300 Descending FAA TRACON SMA TRACON (SMA)
Mon 04:21:03 PM 39.9436 -75.4619 37° Northeast 347 399 13,000 -150 Descending FAA TRACON SMA TRACON (SMA)
Mon 04:21:23 PM 39.9708 -75.4375 35° Northeast 347 399 13,000  Level FAA TRACON SMA TRACON (SMA)
Mon 04:21:43 PM 39.9936 -75.4172 34° Northeast 346 398 13,000 146 Level FAA TRACON SMA TRACON (SMA)
Mon 04:22:04 PM 40.0200 -75.3928 35° Northeast 348 400 13,100  Climbing FAA TRACON SMA TRACON (SMA)
Mon 04:22:23 PM 40.0514 -75.3644 35° Northeast 350 403 13,000 -154 Descending FAA TRACON SMA TRACON (SMA)
Mon 04:22:43 PM 40.0753 -75.3408 37° Northeast 350 403 13,000 146 Level FAA TRACON SMA TRACON (SMA)
Mon 04:23:04 PM 40.0997 -75.3192 34° Northeast 345 397 13,100  Climbing FAA TRACON SMA TRACON (SMA)
Mon 04:23:24 PM 40.1289 -75.2917 36° Northeast 338 389 13,000 -300 Descending FAA TRACON SMA TRACON (SMA)
Mon 04:23:44 PM 40.1503 -75.2722 35° Northeast 335 386 12,900 -750 Descending FAA TRACON SMA TRACON (SMA)
Mon 04:24:04 PM 40.1742 -75.2506 35° Northeast 332 382 12,500 -1,500 Descending FAA TRACON SMA TRACON (SMA)
Mon 04:24:24 PM 40.2036 -75.2217 37° Northeast 329 379 11,900 -1,650 Descending FAA TRACON SMA TRACON (SMA)
Mon 04:24:44 PM 40.2264 -75.2008 35° Northeast 324 373 11,400 -1,200 Descending FAA TRACON SMA TRACON (SMA)
Mon 04:25:04 PM 40.2489 -75.1800 35° Northeast 321 369 11,100 -600 Descending FAA TRACON SMA TRACON (SMA)
Mon 04:25:24 PM 40.2744 -75.1564 35° Northeast 292 336 11,000 -300 Descending FAA TRACON SMA TRACON (SMA)
Mon 04:25:44 PM 40.2939 -75.1383 35° Northeast 290 334 10,900 -750 Descending FAA TRACON SMA TRACON (SMA)
Mon 04:26:04 PM 40.3150 -75.1194 34° Northeast 292 336 10,500 -1,950 Descending FAA TRACON SMA TRACON (SMA)
Mon 04:26:24 PM 40.3381 -75.0872 47° Northeast 314 361 9,600 -2,400 Descending FAA TRACON SMA TRACON (SMA)
Mon 04:26:44 PM 40.3564 -75.0614 47° Northeast 314 361 8,900 -2,250 Descending FAA TRACON SMA TRACON (SMA)
Mon 04:27:04 PM 40.3744 -75.0358 47° Northeast 312 359 8,100 -2,250 Descending FAA TRACON SMA TRACON (SMA)
Mon 04:27:24 PM 40.3969 -75.0044 47° Northeast 309 356 7,400 -1,500 Descending FAA TRACON SMA TRACON (SMA)
Mon 04:27:44 PM 40.4133 -74.9800 49° Northeast 301 346 7,100 -750 Descending FAA TRACON SMA TRACON (SMA)
Mon 04:28:04 PM 40.4294 -74.9578 46° Northeast 272 313 6,900 -1,050 Descending FAA TRACON SMA TRACON (SMA)
Mon 04:28:24 PM 40.4492 -74.9300 47° Northeast 268 308 6,400 -1,500 Descending FAA TRACON SMA TRACON (SMA)
Mon 04:28:44 PM 40.4653 -74.9081 46° Northeast 271 312 5,900 -1,500 Descending FAA TRACON SMA TRACON (SMA)
Mon 04:29:04 PM 40.4817 -74.8847 47° Northeast 278 320 5,400 -1,650 Descending FAA TRACON SMA TRACON (SMA)
Mon 04:29:24 PM 40.5031 -74.8578 44° Northeast 287 330 4,800 -1,350 Descending FAA TRACON SMA TRACON (SMA)
Mon 04:29:44 PM 40.5203 -74.8303 51° Northeast 294 338 4,500 -811 Descending FAA TRACON SMA TRACON (SMA)
Mon 04:30:01 PM 40.5333 -74.8167 38° Northeast 294 338 4,300 -390 Descending New York TRACON
Mon 04:31:01 PM 40.6000 -74.7500 37° Northeast 271 312 4,000 -150 Descending New York TRACON
Mon 04:32:01 PM 40.6500 -74.7000 37° Northeast 267 307 4,000  Level New York TRACON
Mon 04:32:55 PM 40.7167 -74.6333 37° Northeast 268 308 4,000 50 Level New York TRACON
Mon 04:34:01 PM 40.7833 -74.5833 30° Northeast 270 311 4,100  Climbing New York TRACON
Mon 04:35:01 PM 40.8500 -74.5333 30° Northeast 270 311 4,000 -300 Descending New York TRACON
Mon 04:36:01 PM 40.9167 -74.5000 21° North 258 297 3,500 -450 Descending New York TRACON
Mon 04:37:01 PM 40.9667 -74.4500 37° Northeast 239 275 3,100 -200 Descending New York TRACON
Mon 04:38:01 PM 41.0167 -74.4000 37° Northeast 218 251 3,100  Level New York TRACON
Mon 04:39:01 PM 41.0500 -74.3333 56° Northeast 215 247 3,100  Level New York TRACON
Mon 04:40:01 PM 41.0667 -74.2500 75° East 216 249 3,100 -50 Level New York TRACON
Mon 04:41:01 PM 41.0667 -74.1833 90° East 212 244 3,000 -150 Descending New York TRACON
Mon 04:42:01 PM 41.0500 -74.1167 108° East 182 209 2,800 -350 Descending New York TRACON
Mon 04:43:01 PM 41.0333 -74.0667 114° Southeast 160 184 2,300 -400 Descending New York TRACON
Mon 04:44:01 PM 40.9833 -74.0500 166° South 154 177 2,000 -200 Descending New York TRACON
Mon 04:45:01 PM 40.9500 -74.0500 180° South 152 175 1,900 -450 Descending New York TRACON
Mon 04:46:01 PM 40.9000 -74.0500 180° South 147 169 1,100 -800 Descending New York TRACON

Login

Don't have an account? Register now (free) for customized features, flight alerts, and more!